createdAt,value
2022-11-12T00:00:37.556Z,99939.72
2022-11-12T00:03:04.101Z,99942.66
2022-11-12T00:05:30.563Z,99944.72
2022-11-12T00:07:57.031Z,99952.19
2022-11-12T00:10:23.505Z,99957.41
2022-11-12T00:12:50.052Z,99951.97
2022-11-12T00:15:16.553Z,99964.28
2022-11-12T00:17:43.669Z,99959.13
2022-11-12T00:20:10.625Z,99952.41
2022-11-12T00:22:37.112Z,99951.50
2022-11-12T00:25:04.173Z,99954.75
2022-11-12T00:27:32.196Z,99951.72
2022-11-12T00:29:58.672Z,99963.09
2022-11-12T00:32:25.217Z,99958.81
2022-11-12T00:34:51.672Z,99968.09
2022-11-12T00:37:18.734Z,99965.66
2022-11-12T00:39:45.427Z,99961.56
2022-11-12T00:42:11.888Z,99967.13
2022-11-12T00:44:38.381Z,99967.13
2022-11-12T00:47:04.924Z,99967.13
2022-11-12T00:49:31.391Z,99960.66
2022-11-12T00:51:57.927Z,99968.66
2022-11-12T00:54:24.395Z,99970.72
2022-11-12T00:56:50.864Z,99966.88
2022-11-12T00:59:17.327Z,99970.38
2022-11-12T01:01:43.802Z,99972.22
2022-11-12T01:04:10.522Z,99975.16
2022-11-12T01:06:39.461Z,99978.25
2022-11-12T01:09:05.970Z,99981.41
2022-11-12T01:11:32.439Z,99979.19
2022-11-12T01:14:04.092Z,99978.63
2022-11-12T01:16:32.442Z,99976.97
2022-11-12T01:19:00.368Z,99972.78
2022-11-12T01:21:28.234Z,99984.66
2022-11-12T01:23:54.730Z,99985.91
2022-11-12T01:26:22.217Z,99986.16
2022-11-12T01:28:48.706Z,99998.69
2022-11-12T01:31:19.231Z,99989.25
2022-11-12T01:33:49.856Z,99993.44
2022-11-12T01:36:16.935Z,99993.66
2022-11-12T01:38:43.883Z,99993.66
2022-11-12T01:41:15.427Z,99986.09
2022-11-12T01:43:41.882Z,99985.06
2022-11-12T01:46:22.390Z,99982.88
2022-11-12T01:48:53.593Z,99977.16
2022-11-12T01:51:21.331Z,99984.34
2022-11-12T01:53:48.612Z,99978.66
2022-11-12T01:56:15.079Z,99982.13
2022-11-12T01:58:41.546Z,99976.78
2022-11-12T02:01:08.077Z,99973.88
2022-11-12T02:03:34.621Z,99975.97
2022-11-12T02:06:03.486Z,99974.78
2022-11-12T02:08:29.959Z,99984.41
2022-11-12T02:10:56.477Z,99986.09
2022-11-12T02:13:41.297Z,99985.50
2022-11-12T02:16:08.151Z,99987.03
2022-11-12T02:18:34.779Z,99993.38
2022-11-12T02:21:04.573Z,99988.28
2022-11-12T02:23:32.318Z,99983.97
2022-11-12T02:26:01.905Z,99988.13
2022-11-12T02:28:29.065Z,99974.78
2022-11-12T02:30:55.636Z,99968.28
2022-11-12T02:33:22.188Z,99980.00
2022-11-12T02:35:48.660Z,99971.38
2022-11-12T02:38:15.135Z,99969.19
2022-11-12T02:40:41.601Z,99966.72
2022-11-12T02:43:08.062Z,99970.91
2022-11-12T02:45:34.528Z,99970.53
2022-11-12T02:48:01.014Z,99963.78
2022-11-12T02:50:27.497Z,99964.81
2022-11-12T02:52:53.966Z,99962.41
2022-11-12T02:55:20.453Z,99960.78
2022-11-12T02:57:46.900Z,99970.03
2022-11-12T03:00:13.554Z,99959.59
2022-11-12T03:02:42.638Z,99964.31
2022-11-12T03:05:12.315Z,99967.22
2022-11-12T03:07:39.093Z,99971.13
2022-11-12T03:10:06.083Z,99972.16
2022-11-12T03:12:32.707Z,99974.03
2022-11-12T03:14:59.235Z,99961.75
2022-11-12T03:17:25.748Z,99959.31
2022-11-12T03:19:52.237Z,99964.84
2022-11-12T03:22:18.694Z,99971.22
2022-11-12T03:24:45.147Z,99973.31
2022-11-12T03:27:11.602Z,99970.03
2022-11-12T03:29:38.124Z,99970.25
2022-11-12T03:32:04.737Z,99972.31
2022-11-12T03:34:31.193Z,99973.34
2022-11-12T03:36:57.672Z,99973.59
2022-11-12T03:39:24.130Z,99966.84
2022-11-12T03:41:50.594Z,99963.59
2022-11-12T03:44:17.284Z,99965.66
2022-11-12T03:46:44.488Z,99964.25
2022-11-12T03:49:11.183Z,99962.81
2022-11-12T03:51:37.683Z,99958.53
2022-11-12T03:54:04.286Z,99951.78
2022-11-12T03:56:30.742Z,99947.72
2022-11-12T03:58:57.211Z,99955.72
2022-11-12T04:01:23.757Z,99939.94
2022-11-12T04:03:50.316Z,99952.66
2022-11-12T04:06:35.254Z,99955.56
2022-11-12T04:09:01.791Z,99946.94
2022-11-12T04:11:28.274Z,99948.47
2022-11-12T04:13:55.044Z,99950.31
2022-11-12T04:16:40.688Z,99943.13
2022-11-12T04:19:27.265Z,99937.19
2022-11-12T04:21:55.920Z,99949.47
2022-11-12T04:24:45.005Z,99947.25
2022-11-12T04:27:14.968Z,99939.47
2022-11-12T04:30:00.826Z,99937.03
2022-11-12T04:32:27.636Z,99934.59
2022-11-12T04:34:54.467Z,99933.78
2022-11-12T04:37:23.594Z,99935.66
2022-11-12T04:39:50.979Z,99929.31
2022-11-12T04:42:36.049Z,99933.03
2022-11-12T04:45:04.677Z,99936.13
2022-11-12T04:47:36.001Z,99933.69
2022-11-12T04:50:04.476Z,99937.41
2022-11-12T04:52:31.052Z,99938.63
2022-11-12T04:54:57.652Z,99942.34
2022-11-12T04:57:24.326Z,99948.72
2022-11-12T04:59:50.820Z,99944.84
2022-11-12T05:02:17.487Z,99945.88
2022-11-12T05:04:44.019Z,99942.19
2022-11-12T05:07:10.621Z,99940.97
2022-11-12T05:09:37.166Z,99940.41
2022-11-12T05:12:03.768Z,99942.84
2022-11-12T05:14:30.248Z,99940.78
2022-11-12T05:16:56.763Z,99946.94
2022-11-12T05:19:23.230Z,99947.13
2022-11-12T05:22:17.424Z,99952.25
2022-11-12T05:24:53.848Z,99947.94
2022-11-12T05:27:20.660Z,99940.19
2022-11-12T05:29:47.126Z,99942.84
2022-11-12T05:32:15.131Z,99946.53
2022-11-12T05:34:41.737Z,99942.25
2022-11-12T05:37:08.612Z,99946.78
2022-11-12T05:39:35.070Z,99938.16
2022-11-12T05:42:16.587Z,99943.72
2022-11-12T05:44:43.109Z,99935.97
2022-11-12T05:47:09.650Z,99927.34
2022-11-12T05:49:36.099Z,99927.34
2022-11-12T05:52:02.557Z,99931.06
2022-11-12T05:54:29.023Z,99934.53
2022-11-12T05:56:55.501Z,99930.03
2022-11-12T05:59:22.311Z,99929.44
2022-11-12T06:01:48.785Z,99928.63
2022-11-12T06:04:15.474Z,99930.44
2022-11-12T06:06:42.122Z,99923.31
2022-11-12T06:09:08.806Z,99926.97
2022-11-12T06:11:35.374Z,99927.78
2022-11-12T06:14:01.999Z,99929.88
2022-11-12T06:16:28.887Z,99931.50
2022-11-12T06:18:55.369Z,99934.16
2022-11-12T06:21:24.486Z,99933.94
2022-11-12T06:23:53.070Z,99934.16
2022-11-12T06:26:19.795Z,99937.84
2022-11-12T06:28:46.684Z,99948.50
2022-11-12T06:31:13.525Z,99940.13
2022-11-12T06:33:40.030Z,99937.69
2022-11-12T06:36:06.978Z,99935.03
2022-11-12T06:38:34.336Z,99936.88
2022-11-12T06:41:00.878Z,99937.91
2022-11-12T06:43:28.289Z,99947.53
2022-11-12T06:45:54.749Z,99952.41
2022-11-12T06:48:21.509Z,99949.97
2022-11-12T06:50:47.961Z,99945.69
2022-11-12T06:53:14.439Z,99949.72
2022-11-12T06:55:40.927Z,99950.78
2022-11-12T06:58:07.407Z,99951.59
2022-11-12T07:00:33.916Z,99954.47
2022-11-12T07:03:00.397Z,99946.31
2022-11-12T07:05:26.893Z,99959.78
2022-11-12T07:07:54.459Z,99963.50
2022-11-12T07:10:20.951Z,99955.50
2022-11-12T07:12:53.008Z,99961.03
2022-11-12T07:15:19.933Z,99957.56
2022-11-12T07:17:46.631Z,99953.28
2022-11-12T07:20:13.457Z,99957.78
2022-11-12T07:22:39.954Z,99963.09
2022-11-12T07:25:06.606Z,99970.88
2022-11-12T07:27:33.072Z,99968.00
2022-11-12T07:29:59.539Z,99973.16
2022-11-12T07:32:26.070Z,99965.34
2022-11-12T07:34:52.523Z,99963.72
2022-11-12T07:37:19.001Z,99961.06
2022-11-12T07:39:45.459Z,99966.63
2022-11-12T07:42:11.927Z,99964.53
2022-11-12T07:44:38.415Z,99968.66
2022-11-12T07:47:04.893Z,99964.38
2022-11-12T07:49:31.354Z,99971.94
2022-11-12T07:51:57.809Z,99976.59
2022-11-12T07:54:24.383Z,99975.19
2022-11-12T07:56:50.852Z,99971.50
2022-11-12T07:59:17.334Z,99972.28
2022-11-12T08:01:44.949Z,99967.47
2022-11-12T08:04:12.065Z,99973.13
2022-11-12T08:06:38.669Z,99969.31
2022-11-12T08:09:06.508Z,99970.47
2022-11-12T08:11:33.171Z,99977.59
2022-11-12T08:13:59.867Z,99976.16
2022-11-12T08:16:26.364Z,99975.88
2022-11-12T08:18:55.520Z,99986.53
2022-11-12T08:21:21.999Z,99978.69
2022-11-12T08:23:48.547Z,99988.53
2022-11-12T08:26:16.240Z,99984.03
2022-11-12T08:28:42.728Z,99990.16
2022-11-12T08:31:11.175Z,99986.16
2022-11-12T08:33:37.666Z,99987.03
2022-11-12T08:36:08.249Z,99989.06
2022-11-12T08:38:34.794Z,99981.44
2022-11-12T08:41:05.147Z,99980.25
2022-11-12T08:43:31.637Z,99982.75
2022-11-12T08:45:59.637Z,99990.94
2022-11-12T08:48:26.470Z,99987.59
2022-11-12T08:50:53.297Z,99981.16
2022-11-12T08:53:21.072Z,99977.91
2022-11-12T08:55:47.779Z,99973.25
2022-11-12T08:58:14.266Z,99979.00
2022-11-12T09:00:43.089Z,99979.66
2022-11-12T09:03:14.307Z,99974.06
2022-11-12T09:05:40.758Z,99980.13
2022-11-12T09:08:11.480Z,99969.41
2022-11-12T09:10:38.140Z,99967.66
2022-11-12T09:13:04.809Z,99967.31
2022-11-12T09:15:37.493Z,99965.34
2022-11-12T09:18:06.794Z,99973.63
2022-11-12T09:20:33.285Z,99974.38
2022-11-12T09:23:07.277Z,99978.28
2022-11-12T09:25:33.833Z,99993.16
2022-11-12T09:28:08.416Z,99990.66
2022-11-12T09:30:36.010Z,99988.03
2022-11-12T09:33:02.465Z,99990.28
2022-11-12T09:35:29.328Z,99990.66
2022-11-12T09:37:56.747Z,99993.16
2022-11-12T09:40:23.218Z,99995.59
2022-11-12T09:42:52.690Z,99989.84
2022-11-12T09:45:24.858Z,99996.38
2022-11-12T09:47:54.275Z,99993.72
2022-11-12T09:50:21.905Z,99991.25
2022-11-12T09:52:48.887Z,99989.63
2022-11-12T09:55:36.262Z,99991.34
2022-11-12T09:58:05.796Z,99989.03
2022-11-12T10:00:32.252Z,99989.63
2022-11-12T10:03:02.384Z,99983.09
2022-11-12T10:05:47.554Z,99981.22
2022-11-12T10:08:35.992Z,99987.66
2022-11-12T10:11:07.384Z,99985.13
2022-11-12T10:13:47.412Z,99981.81
2022-11-12T10:16:41.998Z,99977.19
2022-11-12T10:19:34.678Z,99977.00
2022-11-12T10:22:31.840Z,99975.91
2022-11-12T10:24:58.318Z,99977.19
2022-11-12T10:27:28.439Z,99965.75
2022-11-12T10:30:05.989Z,99967.63
2022-11-12T10:32:32.532Z,99970.09
2022-11-12T10:34:58.988Z,99973.16
2022-11-12T10:37:59.814Z,99973.16
2022-11-12T10:40:37.448Z,99975.84
2022-11-12T10:43:21.112Z,99970.72
2022-11-12T10:45:48.866Z,99979.53
2022-11-12T10:48:27.569Z,99980.72
2022-11-12T10:50:54.458Z,99983.56
2022-11-12T10:53:34.737Z,99971.47
2022-11-12T10:56:02.945Z,99976.75
2022-11-12T10:58:29.709Z,99979.19
2022-11-12T11:01:04.272Z,99975.50
2022-11-12T11:03:34.918Z,99970.59
2022-11-12T11:06:23.569Z,99980.66
2022-11-12T11:08:54.079Z,99981.69
2022-11-12T11:11:28.014Z,99973.72
2022-11-12T11:13:56.130Z,99967.94
2022-11-12T11:16:24.428Z,99965.66
2022-11-12T11:18:58.660Z,99969.00
2022-11-12T11:21:50.356Z,99968.44
2022-11-12T11:24:36.804Z,99964.63
2022-11-12T11:27:32.069Z,99964.84
2022-11-12T11:30:11.182Z,99956.53
2022-11-12T11:33:00.825Z,99958.97
2022-11-12T11:35:32.444Z,99952.59
2022-11-12T11:38:17.137Z,99955.28
2022-11-12T11:40:58.906Z,99944.25
2022-11-12T11:43:45.593Z,99944.94
2022-11-12T11:46:31.508Z,99939.81
2022-11-12T11:49:13.041Z,99936.13
2022-11-12T11:51:42.338Z,99936.19
2022-11-12T11:54:23.992Z,99936.31
2022-11-12T11:56:50.582Z,99932.03
2022-11-12T11:59:27.703Z,99931.47
2022-11-12T12:02:20.370Z,99931.66
2022-11-12T12:04:51.831Z,99927.59
2022-11-12T12:07:22.261Z,99926.66
2022-11-12T12:10:14.202Z,99927.09
2022-11-12T12:12:51.231Z,99922.19
2022-11-12T12:15:51.437Z,99918.94
2022-11-12T12:18:27.552Z,99908.53
2022-11-12T12:20:57.573Z,99900.94
2022-11-12T12:23:37.537Z,99902.19
2022-11-12T12:26:07.887Z,99901.97
2022-11-12T12:28:45.479Z,99904.19
2022-11-12T12:31:18.601Z,99908.88
2022-11-12T12:33:53.482Z,99911.53
2022-11-12T12:36:42.363Z,99899.63
2022-11-12T12:39:26.202Z,99895.91
2022-11-12T12:42:01.973Z,99888.72
2022-11-12T12:44:49.508Z,99888.50
2022-11-12T12:47:16.005Z,99888.97
2022-11-12T12:49:42.583Z,99890.22
2022-11-12T12:52:12.954Z,99889.41
2022-11-12T12:54:39.398Z,99882.34
2022-11-12T12:57:28.141Z,99880.94
2022-11-12T13:00:26.742Z,99881.28
2022-11-12T13:02:53.325Z,99872.59
2022-11-12T13:05:36.197Z,99872.84
2022-11-12T13:08:08.485Z,99874.25
2022-11-12T13:10:53.619Z,99884.13
2022-11-12T13:13:19.980Z,99878.03
2022-11-12T13:15:48.519Z,99874.06
2022-11-12T13:18:40.571Z,99873.09
2022-11-12T13:21:07.981Z,99872.75
2022-11-12T13:24:06.807Z,99869.69
2022-11-12T13:26:39.427Z,99871.78
2022-11-12T13:29:25.488Z,99873.88
2022-11-12T13:32:29.654Z,99877.75
2022-11-12T13:35:22.409Z,99871.84
2022-11-12T13:38:01.522Z,99866.16
2022-11-12T13:40:33.667Z,99865.91
2022-11-12T13:43:10.358Z,99861.41
2022-11-12T13:45:46.884Z,99870.00
2022-11-12T13:48:27.911Z,99868.94
2022-11-12T13:50:59.363Z,99868.72
2022-11-12T13:53:26.962Z,99865.25
2022-11-12T13:55:53.773Z,99859.91
2022-11-12T13:58:30.772Z,99867.69
2022-11-12T14:00:58.603Z,99866.69
2022-11-12T14:03:27.206Z,99857.88
2022-11-12T14:05:53.858Z,99864.59
2022-11-12T14:08:38.691Z,99866.22
2022-11-12T14:11:46.893Z,99861.69
2022-11-12T14:14:25.244Z,99866.03
2022-11-12T14:17:10.462Z,99855.56
2022-11-12T14:20:00.102Z,99863.78
2022-11-12T14:22:26.636Z,99855.00
2022-11-12T14:24:58.790Z,99857.00
2022-11-12T14:27:28.142Z,99858.47
2022-11-12T14:30:17.709Z,99857.88
2022-11-12T14:32:46.051Z,99857.88
2022-11-12T14:35:30.418Z,99857.25
2022-11-12T14:38:09.267Z,99849.69
2022-11-12T14:40:37.595Z,99843.78
2022-11-12T14:43:04.080Z,99841.56
2022-11-12T14:45:35.050Z,99847.13
2022-11-12T14:48:01.719Z,99845.69
2022-11-12T14:50:35.857Z,99850.69
2022-11-12T14:53:08.432Z,99856.00
2022-11-12T14:55:36.387Z,99848.69
2022-11-12T14:58:03.468Z,99847.88
2022-11-12T15:00:34.148Z,99844.41
2022-11-12T15:03:01.258Z,99849.94
2022-11-12T15:05:27.875Z,99855.25
2022-11-12T15:07:54.414Z,99847.28
2022-11-12T15:10:39.611Z,99851.56
2022-11-12T15:13:10.658Z,99851.78
2022-11-12T15:16:07.404Z,99848.91
2022-11-12T15:18:33.979Z,99844.59
2022-11-12T15:21:20.629Z,99849.13
2022-11-12T15:23:51.987Z,99855.06
2022-11-12T15:26:35.429Z,99848.69
2022-11-12T15:29:10.937Z,99847.41
2022-11-12T15:31:55.869Z,99841.75
2022-11-12T15:34:28.247Z,99843.50
2022-11-12T15:36:55.767Z,99846.16
2022-11-12T15:39:22.463Z,99843.28
2022-11-12T15:41:48.939Z,99839.78
2022-11-12T15:44:15.419Z,99843.28
2022-11-12T15:46:41.878Z,99841.66
2022-11-12T15:49:12.160Z,99846.97
2022-11-12T15:51:38.605Z,99845.34
2022-11-12T15:54:05.083Z,99835.00
2022-11-12T15:56:31.563Z,99848.31
2022-11-12T15:58:58.182Z,99856.75
2022-11-12T16:01:24.698Z,99848.41
2022-11-12T16:03:51.250Z,99856.59
2022-11-12T16:06:17.758Z,99859.50
2022-11-12T16:08:44.335Z,99850.88
2022-11-12T16:11:30.763Z,99844.97
2022-11-12T16:13:57.247Z,99851.13
2022-11-12T16:16:23.698Z,99847.28
2022-11-12T16:18:50.155Z,99849.94
2022-11-12T16:21:20.699Z,99848.94
2022-11-12T16:23:47.505Z,99837.44
2022-11-12T16:26:15.214Z,99835.00
2022-11-12T16:28:41.764Z,99841.28
2022-11-12T16:31:08.219Z,99848.03
2022-11-12T16:33:35.787Z,99846.56
2022-11-12T16:36:02.266Z,99847.13
2022-11-12T16:38:28.747Z,99850.16
2022-11-12T16:40:55.211Z,99848.91
2022-11-12T16:43:21.682Z,99848.47
2022-11-12T16:45:48.136Z,99846.59
2022-11-12T16:48:21.510Z,99841.88
2022-11-12T16:50:48.252Z,99848.59
2022-11-12T16:53:14.749Z,99848.38
2022-11-12T16:55:41.455Z,99842.03
2022-11-12T16:58:10.477Z,99842.03
2022-11-12T17:00:36.933Z,99841.22
2022-11-12T17:03:03.481Z,99834.47
2022-11-12T17:05:29.954Z,99841.66
2022-11-12T17:07:57.164Z,99848.22
2022-11-12T17:10:23.998Z,99844.19
2022-11-12T17:12:51.123Z,99840.91
2022-11-12T17:15:17.659Z,99842.31
2022-11-12T17:17:44.146Z,99845.22
2022-11-12T17:20:10.762Z,99841.28
2022-11-12T17:22:37.359Z,99842.56
2022-11-12T17:25:04.413Z,99838.84
2022-11-12T17:27:31.071Z,99839.41
2022-11-12T17:29:57.556Z,99832.03
2022-11-12T17:32:24.540Z,99830.41
2022-11-12T17:34:51.034Z,99829.81
2022-11-12T17:37:17.490Z,99834.75
2022-11-12T17:39:44.508Z,99829.91
2022-11-12T17:42:10.981Z,99828.72
2022-11-12T17:44:37.514Z,99817.44
2022-11-12T17:47:04.023Z,99817.69
2022-11-12T17:49:30.496Z,99816.50
2022-11-12T17:51:56.953Z,99824.25
2022-11-12T17:54:23.429Z,99818.13
2022-11-12T17:56:49.962Z,99818.13
2022-11-12T17:59:16.504Z,99820.34
2022-11-12T18:01:43.043Z,99818.50
2022-11-12T18:04:09.898Z,99815.84
2022-11-12T18:06:36.453Z,99815.03
2022-11-12T18:09:17.010Z,99808.44
2022-11-12T18:11:45.515Z,99804.75
2022-11-12T18:14:12.058Z,99810.66
2022-11-12T18:16:38.541Z,99813.53
2022-11-12T18:19:05.136Z,99809.25
2022-11-12T18:21:31.588Z,99817.25
2022-11-12T18:23:58.074Z,99804.00
2022-11-12T18:26:24.546Z,99812.59
2022-11-12T18:28:52.181Z,99814.06
2022-11-12T18:31:18.787Z,99811.63
2022-11-12T18:33:45.284Z,99818.22
2022-11-12T18:36:18.965Z,99819.69
2022-11-12T18:38:46.787Z,99826.06
2022-11-12T18:41:14.610Z,99820.13
2022-11-12T18:43:41.155Z,99822.78
2022-11-12T18:46:08.341Z,99821.78
2022-11-12T18:48:35.335Z,99812.75
2022-11-12T18:51:07.191Z,99819.25
2022-11-12T18:53:33.827Z,99817.41
2022-11-12T18:56:05.095Z,99811.41
2022-11-12T18:58:35.161Z,99819.53
2022-11-12T19:01:06.797Z,99816.44
2022-11-12T19:03:33.306Z,99807.97
2022-11-12T19:06:00.597Z,99811.84
2022-11-12T19:08:27.062Z,99811.84
2022-11-12T19:11:00.424Z,99815.09
2022-11-12T19:13:27.337Z,99813.59
2022-11-12T19:15:54.061Z,99819.75
2022-11-12T19:18:20.538Z,99816.88
2022-11-12T19:20:47.771Z,99805.16
2022-11-12T19:23:14.278Z,99803.31
2022-11-12T19:25:40.751Z,99802.25
2022-11-12T19:28:07.221Z,99794.50
2022-11-12T19:30:33.698Z,99798.22
2022-11-12T19:33:00.169Z,99790.66
2022-11-12T19:35:26.628Z,99795.41
2022-11-12T19:37:53.420Z,99789.13
2022-11-12T19:40:19.925Z,99791.19
2022-11-12T19:42:47.954Z,99783.06
2022-11-12T19:45:14.510Z,99786.41
2022-11-12T19:47:41.052Z,99782.09
2022-11-12T19:50:07.983Z,99781.72
2022-11-12T19:52:34.449Z,99781.97
2022-11-12T19:55:00.981Z,99777.06
2022-11-12T19:57:29.026Z,99778.13
2022-11-12T19:59:55.506Z,99772.78
2022-11-12T20:02:21.972Z,99774.66
2022-11-12T20:04:48.462Z,99770.94
2022-11-12T20:07:14.985Z,99767.69
2022-11-12T20:09:41.562Z,99773.16
2022-11-12T20:12:08.032Z,99770.84
2022-11-12T20:14:34.497Z,99770.66
2022-11-12T20:17:00.966Z,99768.56
2022-11-12T20:19:27.854Z,99764.66
2022-11-12T20:21:54.320Z,99767.88
2022-11-12T20:24:20.848Z,99763.97
2022-11-12T20:26:47.341Z,99762.13
2022-11-12T20:29:13.842Z,99759.84
2022-11-12T20:31:41.887Z,99763.06
2022-11-12T20:34:08.378Z,99751.97
2022-11-12T20:36:34.858Z,99761.81
2022-11-12T20:39:02.143Z,99757.31
2022-11-12T20:41:29.382Z,99750.31
2022-11-12T20:43:57.621Z,99758.69
2022-11-12T20:46:27.237Z,99745.97
2022-11-12T20:48:56.387Z,99759.28
2022-11-12T20:51:25.459Z,99752.31
2022-11-12T20:53:58.975Z,99755.81
2022-11-12T20:56:26.855Z,99759.50
2022-11-12T20:58:53.335Z,99753.34
2022-11-12T21:01:21.245Z,99748.72
2022-11-12T21:03:47.958Z,99750.00
2022-11-12T21:06:16.112Z,99742.44
2022-11-12T21:08:42.823Z,99745.78
2022-11-12T21:11:16.677Z,99733.94
2022-11-12T21:13:44.613Z,99731.50
2022-11-12T21:16:11.799Z,99730.09
2022-11-12T21:18:38.552Z,99733.81
2022-11-12T21:21:06.856Z,99731.81
2022-11-12T21:23:34.544Z,99733.66
2022-11-12T21:26:04.167Z,99727.97
2022-11-12T21:28:38.307Z,99724.94
2022-11-12T21:31:09.683Z,99719.03
2022-11-12T21:33:36.135Z,99720.50
2022-11-12T21:36:03.501Z,99723.41
2022-11-12T21:38:30.371Z,99723.41
2022-11-12T21:41:10.493Z,99728.13
2022-11-12T21:43:38.461Z,99715.28
2022-11-12T21:46:14.927Z,99712.81
2022-11-12T21:48:41.449Z,99714.91
2022-11-12T21:51:09.814Z,99708.16
2022-11-12T21:53:36.294Z,99713.47
2022-11-12T21:56:21.459Z,99706.78
2022-11-12T21:58:47.922Z,99707.19
2022-11-12T22:01:21.890Z,99700.47
2022-11-12T22:03:49.455Z,99697.00
2022-11-12T22:06:16.144Z,99702.09
2022-11-12T22:08:42.654Z,99701.28
2022-11-12T22:11:13.156Z,99696.19
2022-11-12T22:13:39.972Z,99705.19
2022-11-12T22:16:07.204Z,99699.03
2022-11-12T22:18:36.819Z,99693.97
2022-11-12T22:21:05.214Z,99688.63
2022-11-12T22:23:37.661Z,99690.91
2022-11-12T22:26:05.039Z,99686.41
2022-11-12T22:28:31.765Z,99691.16
2022-11-12T22:31:06.182Z,99681.75
2022-11-12T22:33:32.835Z,99681.97
2022-11-12T22:36:04.862Z,99686.03
2022-11-12T22:38:38.837Z,99677.63
2022-11-12T22:41:09.450Z,99673.09
2022-11-12T22:43:38.740Z,99667.19
2022-11-12T22:46:05.257Z,99677.03
2022-11-12T22:48:31.887Z,99674.38
2022-11-12T22:51:01.943Z,99677.84
2022-11-12T22:53:28.699Z,99675.38
2022-11-12T22:55:55.195Z,99670.91
2022-11-12T22:58:21.734Z,99665.59
2022-11-12T23:00:48.205Z,99667.19
2022-11-12T23:03:14.662Z,99668.44
2022-11-12T23:05:42.452Z,99665.78
2022-11-12T23:08:08.989Z,99668.44
2022-11-12T23:10:35.492Z,99663.34
2022-11-12T23:13:01.964Z,99664.41
2022-11-12T23:15:31.266Z,99664.16
2022-11-12T23:17:57.735Z,99666.25
2022-11-12T23:20:24.267Z,99664.41
2022-11-12T23:22:51.209Z,99660.09
2022-11-12T23:25:17.670Z,99662.75
2022-11-12T23:27:44.129Z,99650.94
2022-11-12T23:30:11.130Z,99664.91
2022-11-12T23:32:37.611Z,99662.94
2022-11-12T23:35:04.270Z,99659.06
2022-11-12T23:37:30.722Z,99650.88
2022-11-12T23:39:57.256Z,99658.84
2022-11-12T23:42:23.735Z,99653.53
2022-11-12T23:44:50.227Z,99647.63
2022-11-12T23:47:16.691Z,99643.31
2022-11-12T23:49:43.175Z,99649.47
2022-11-12T23:52:09.653Z,99647.25
2022-11-12T23:54:36.307Z,99656.19
2022-11-12T23:57:02.809Z,99649.47
2022-11-12T23:59:29.286Z,99643.31
